createdAt,value
2018-03-22T00:02:20.962Z,62.54
2018-03-22T00:04:48.946Z,63.14
2018-03-22T00:07:17.345Z,62.54
2018-03-22T00:09:46.046Z,62.86
2018-03-22T00:12:14.631Z,62.51
2018-03-22T00:14:43.210Z,62.22
2018-03-22T00:17:11.542Z,62.36
2018-03-22T00:19:40.373Z,62.07
2018-03-22T00:22:08.753Z,62.41
2018-03-22T00:24:36.818Z,62.13
2018-03-22T00:27:04.859Z,62.00
2018-03-22T00:29:32.819Z,62.08
2018-03-22T00:32:00.740Z,61.90
2018-03-22T00:34:28.755Z,62.09
2018-03-22T00:36:56.741Z,61.73
2018-03-22T00:39:25.148Z,63.29
2018-03-22T00:41:53.816Z,64.19
2018-03-22T00:44:21.788Z,66.36
2018-03-22T00:46:49.841Z,64.80
2018-03-22T00:49:17.980Z,63.89
2018-03-22T00:51:46.009Z,65.60
2018-03-22T00:54:13.966Z,66.09
2018-03-22T00:56:41.938Z,65.06
2018-03-22T00:59:09.947Z,64.37
2018-03-22T01:01:37.878Z,63.74
2018-03-22T01:04:05.749Z,63.51
2018-03-22T01:06:33.680Z,64.87
2018-03-22T01:09:01.592Z,65.64
2018-03-22T01:11:29.553Z,64.87
2018-03-22T01:13:57.477Z,63.93
2018-03-22T01:16:25.490Z,63.54
2018-03-22T01:18:53.486Z,64.06
2018-03-22T01:21:21.478Z,64.51
2018-03-22T01:23:49.490Z,64.03
2018-03-22T01:26:17.451Z,63.14
2018-03-22T01:28:45.394Z,63.02
2018-03-22T01:31:13.321Z,62.94
2018-03-22T01:33:41.294Z,63.37
2018-03-22T01:36:09.342Z,62.36
2018-03-22T01:38:37.293Z,61.56
2018-03-22T01:41:05.304Z,61.85
2018-03-22T01:43:34.269Z,61.77
2018-03-22T01:46:02.667Z,62.68
2018-03-22T01:48:31.344Z,62.61
2018-03-22T01:50:59.344Z,61.63
2018-03-22T01:53:27.281Z,61.81
2018-03-22T01:55:55.194Z,61.42
2018-03-22T01:58:23.171Z,62.10
2018-03-22T02:00:51.174Z,62.70
2018-03-22T02:03:19.160Z,62.61
2018-03-22T02:05:47.151Z,62.36
2018-03-22T02:08:15.119Z,62.76
2018-03-22T02:10:43.092Z,63.01
2018-03-22T02:13:10.981Z,62.00
2018-03-22T02:15:38.978Z,62.69
2018-03-22T02:18:06.956Z,64.13
2018-03-22T02:20:35.238Z,64.24
2018-03-22T02:23:03.607Z,62.84
2018-03-22T02:25:32.396Z,61.95
2018-03-22T02:28:00.361Z,62.79
2018-03-22T02:30:28.299Z,62.36
2018-03-22T02:32:56.264Z,65.66
2018-03-22T02:35:24.358Z,66.64
2018-03-22T02:37:52.657Z,64.96
2018-03-22T02:40:20.618Z,64.63
2018-03-22T02:42:48.677Z,64.15
2018-03-22T02:45:16.958Z,63.89
2018-03-22T02:47:44.962Z,65.55
2018-03-22T02:50:12.893Z,65.93
2018-03-22T02:52:40.844Z,67.33
2018-03-22T02:55:09.551Z,67.84
2018-03-22T02:57:37.737Z,67.61
2018-03-22T03:00:06.113Z,68.25
2018-03-22T03:02:34.638Z,67.57
2018-03-22T03:05:03.376Z,66.04
2018-03-22T03:07:31.953Z,65.05
2018-03-22T03:10:00.433Z,65.18
2018-03-22T03:12:29.163Z,64.78
2018-03-22T03:14:57.601Z,66.18
2018-03-22T03:17:26.303Z,67.55
2018-03-22T03:19:54.852Z,66.34
2018-03-22T03:22:22.846Z,65.83
2018-03-22T03:24:50.851Z,66.50
2018-03-22T03:27:18.818Z,65.88
2018-03-22T03:29:46.796Z,65.68
2018-03-22T03:32:14.711Z,64.68
2018-03-22T03:34:43.393Z,66.20
2018-03-22T03:37:11.770Z,66.71
2018-03-22T03:39:39.766Z,65.41
2018-03-22T03:42:08.221Z,65.25
2018-03-22T03:44:36.807Z,66.59
2018-03-22T03:47:05.503Z,66.05
2018-03-22T03:49:33.977Z,65.43
2018-03-22T03:52:01.999Z,66.27
2018-03-22T03:54:29.941Z,67.07
2018-03-22T03:56:58.401Z,65.06
2018-03-22T03:59:27.365Z,66.25
2018-03-22T04:01:55.371Z,68.52
2018-03-22T04:04:23.378Z,69.37
2018-03-22T04:06:51.312Z,69.27
2018-03-22T04:09:19.771Z,69.51
2018-03-22T04:11:48.273Z,69.42
2018-03-22T04:14:16.263Z,69.30
2018-03-22T04:16:44.796Z,67.06
2018-03-22T04:19:12.816Z,66.67
2018-03-22T04:21:40.786Z,67.60
2018-03-22T04:24:08.737Z,66.76
2018-03-22T04:26:36.689Z,65.26
2018-03-22T04:29:04.664Z,67.53
2018-03-22T04:31:33.330Z,67.11
2018-03-22T04:34:01.330Z,66.80
2018-03-22T04:36:29.939Z,65.86
2018-03-22T04:38:57.941Z,65.42
2018-03-22T04:41:25.910Z,65.59
2018-03-22T04:43:53.893Z,67.07
2018-03-22T04:46:21.832Z,65.52
2018-03-22T04:48:50.247Z,64.77
2018-03-22T04:51:18.197Z,63.29
2018-03-22T04:53:46.075Z,64.11
2018-03-22T04:56:14.048Z,65.30
2018-03-22T04:58:42.036Z,65.51
2018-03-22T05:01:10.685Z,64.72
2018-03-22T05:03:39.265Z,64.84
2018-03-22T05:06:07.197Z,66.44
2018-03-22T05:08:35.718Z,66.08
2018-03-22T05:11:04.301Z,65.10
2018-03-22T05:13:32.206Z,65.61
2018-03-22T05:16:00.140Z,65.72
2018-03-22T05:18:28.070Z,66.52
2018-03-22T05:20:56.015Z,65.39
2018-03-22T05:23:23.948Z,66.44
2018-03-22T05:25:53.069Z,66.41
2018-03-22T05:28:21.040Z,67.27
2018-03-22T05:30:49.007Z,68.05
2018-03-22T05:33:17.139Z,68.36
2018-03-22T05:35:46.033Z,66.57
2018-03-22T05:38:14.309Z,67.54
2018-03-22T05:40:42.281Z,68.62
2018-03-22T05:43:10.301Z,64.49
2018-03-22T05:45:38.343Z,64.71
2018-03-22T05:48:06.301Z,66.21
2018-03-22T05:50:34.947Z,65.25
2018-03-22T05:53:03.455Z,66.40
2018-03-22T05:55:31.936Z,67.95
2018-03-22T05:57:59.885Z,64.53
2018-03-22T06:00:27.862Z,63.70
2018-03-22T06:02:55.820Z,63.34
2018-03-22T06:05:24.214Z,64.54
2018-03-22T06:07:52.232Z,65.61
2018-03-22T06:10:20.126Z,66.93
2018-03-22T06:12:48.101Z,67.19
2018-03-22T06:15:16.072Z,68.03
2018-03-22T06:17:43.990Z,67.83
2018-03-22T06:20:11.986Z,65.67
2018-03-22T06:22:39.947Z,66.98
2018-03-22T06:25:07.972Z,66.81
2018-03-22T06:27:35.979Z,68.73
2018-03-22T06:30:04.033Z,69.45
2018-03-22T06:32:31.973Z,69.91
2018-03-22T06:34:59.970Z,69.04
2018-03-22T06:37:27.934Z,69.30
2018-03-22T06:39:55.926Z,69.02
2018-03-22T06:42:23.877Z,69.71
2018-03-22T06:44:51.888Z,70.19
2018-03-22T06:47:19.842Z,69.22
2018-03-22T06:49:47.913Z,67.69
2018-03-22T06:52:16.126Z,66.05
2018-03-22T06:54:44.061Z,67.55
2018-03-22T06:57:12.031Z,66.09
2018-03-22T06:59:39.971Z,66.19
2018-03-22T07:02:07.954Z,68.30
2018-03-22T07:04:35.869Z,70.14
2018-03-22T07:07:03.803Z,71.46
2018-03-22T07:09:31.759Z,69.89
2018-03-22T07:11:59.712Z,70.43
2018-03-22T07:14:27.650Z,72.96
2018-03-22T07:16:55.666Z,69.37
2018-03-22T07:19:23.641Z,68.27
2018-03-22T07:21:51.551Z,67.65
2018-03-22T07:24:19.528Z,67.02
2018-03-22T07:26:47.501Z,68.44
2018-03-22T07:29:15.525Z,64.63
2018-03-22T07:31:43.483Z,65.60
2018-03-22T07:34:11.441Z,65.51
2018-03-22T07:36:39.405Z,63.62
2018-03-22T07:39:07.417Z,64.75
2018-03-22T07:41:35.362Z,65.14
2018-03-22T07:44:08.796Z,66.52
2018-03-22T07:46:36.732Z,67.23
2018-03-22T07:49:04.740Z,65.67
2018-03-22T07:51:32.726Z,65.58
2018-03-22T07:54:01.286Z,66.22
2018-03-22T07:56:29.225Z,64.23
2018-03-22T07:58:57.246Z,64.18
2018-03-22T08:01:25.191Z,64.94
2018-03-22T08:03:53.180Z,65.38
2018-03-22T08:06:21.163Z,65.33
2018-03-22T08:08:49.133Z,64.72
2018-03-22T08:11:17.142Z,64.05
2018-03-22T08:13:45.213Z,65.25
2018-03-22T08:16:13.309Z,64.95
2018-03-22T08:18:41.179Z,64.66
2018-03-22T08:21:09.092Z,66.11
2018-03-22T08:23:37.134Z,66.38
2018-03-22T08:26:05.072Z,65.04
2018-03-22T08:28:33.031Z,65.05
2018-03-22T08:31:01.052Z,67.59
2018-03-22T08:33:29.077Z,66.87
2018-03-22T08:35:57.013Z,67.05
2018-03-22T08:38:24.949Z,67.91
2018-03-22T08:40:53.004Z,65.49
2018-03-22T08:43:20.990Z,64.96
2018-03-22T08:45:49.046Z,66.81
2018-03-22T08:48:17.090Z,66.80
2018-03-22T08:50:45.101Z,67.76
2018-03-22T08:53:13.069Z,66.62
2018-03-22T08:55:41.710Z,68.49
2018-03-22T08:58:09.681Z,65.46
2018-03-22T09:00:37.678Z,64.87
2018-03-22T09:03:05.721Z,65.43
2018-03-22T09:05:33.698Z,65.75
2018-03-22T09:08:01.715Z,66.56
2018-03-22T09:10:29.781Z,65.33
2018-03-22T09:12:57.745Z,64.48
2018-03-22T09:15:25.757Z,68.26
2018-03-22T09:17:53.746Z,67.04
2018-03-22T09:20:22.277Z,63.77
2018-03-22T09:22:50.228Z,64.12
2018-03-22T09:25:19.420Z,63.68
2018-03-22T09:27:47.401Z,66.29
2018-03-22T09:30:15.365Z,64.74
2018-03-22T09:32:43.298Z,69.79
2018-03-22T09:35:11.286Z,64.45
2018-03-22T09:37:39.238Z,67.64
2018-03-22T09:40:07.241Z,65.19
2018-03-22T09:42:35.238Z,71.29
2018-03-22T09:45:03.414Z,64.04
2018-03-22T09:47:31.812Z,65.79
2018-03-22T09:50:00.093Z,65.19
2018-03-22T09:52:28.773Z,65.87
2018-03-22T09:54:56.732Z,67.18
2018-03-22T09:57:25.455Z,65.60
2018-03-22T09:59:54.119Z,68.80
2018-03-22T10:02:22.589Z,69.23
2018-03-22T10:04:50.988Z,66.91
2018-03-22T10:07:19.553Z,66.90
2018-03-22T10:09:47.937Z,68.41
2018-03-22T10:12:16.511Z,68.27
2018-03-22T10:14:44.997Z,65.12
2018-03-22T10:17:13.169Z,66.16
2018-03-22T10:19:41.656Z,63.40
2018-03-22T10:22:10.037Z,67.92
2018-03-22T10:24:38.510Z,64.52
2018-03-22T10:27:07.077Z,63.67
2018-03-22T10:29:35.673Z,62.96
2018-03-22T10:32:04.157Z,62.86
2018-03-22T10:34:32.661Z,63.23
2018-03-22T10:37:01.216Z,63.32
2018-03-22T10:39:29.705Z,62.83
2018-03-22T10:41:57.987Z,64.01
2018-03-22T10:44:26.062Z,63.50
2018-03-22T10:46:54.018Z,63.62
2018-03-22T10:49:21.941Z,63.27
2018-03-22T10:51:49.935Z,63.43
2018-03-22T10:54:18.006Z,62.32
2018-03-22T10:56:46.769Z,62.15
2018-03-22T10:59:15.738Z,62.71
2018-03-22T11:01:49.665Z,70.75
2018-03-22T11:04:18.044Z,61.87
2018-03-22T11:06:46.773Z,63.33
2018-03-22T11:09:15.046Z,65.72
2018-03-22T11:11:43.435Z,67.87
2018-03-22T11:14:11.892Z,63.67
2018-03-22T11:16:40.282Z,63.00
2018-03-22T11:19:08.972Z,65.35
2018-03-22T11:21:37.253Z,62.73
2018-03-22T11:24:05.730Z,64.62
2018-03-22T11:26:34.123Z,61.70
2018-03-22T11:29:02.095Z,63.50
2018-03-22T11:31:30.759Z,67.12
2018-03-22T11:33:59.342Z,63.46
2018-03-22T11:36:27.817Z,62.42
2018-03-22T11:38:56.209Z,62.51
2018-03-22T11:41:24.609Z,61.88
2018-03-22T11:43:52.666Z,61.93
2018-03-22T11:46:21.227Z,63.91
2018-03-22T11:48:49.453Z,64.45
2018-03-22T11:51:17.990Z,62.95
2018-03-22T11:53:46.544Z,62.22
2018-03-22T11:56:15.362Z,62.44
2018-03-22T11:58:44.046Z,64.24
2018-03-22T12:01:12.769Z,62.73
2018-03-22T12:03:41.103Z,62.42
2018-03-22T12:06:09.890Z,64.07
2018-03-22T12:08:38.682Z,62.26
2018-03-22T12:11:07.300Z,65.50
2018-03-22T12:13:35.641Z,60.74
2018-03-22T12:16:04.125Z,60.01
2018-03-22T12:18:32.610Z,59.87
2018-03-22T12:21:00.606Z,60.80
2018-03-22T12:23:28.539Z,60.39
2018-03-22T12:25:57.070Z,61.77
2018-03-22T12:28:25.706Z,66.17
2018-03-22T12:30:54.290Z,65.07
2018-03-22T12:33:22.772Z,62.31
2018-03-22T12:35:51.560Z,62.04
2018-03-22T12:38:20.041Z,58.85
2018-03-22T12:40:48.413Z,59.99
2018-03-22T12:43:16.413Z,60.35
2018-03-22T12:45:44.962Z,59.33
2018-03-22T12:48:13.241Z,59.98
2018-03-22T12:50:42.030Z,59.68
2018-03-22T12:53:10.615Z,59.63
2018-03-22T12:55:39.016Z,61.98
2018-03-22T12:58:07.574Z,61.41
2018-03-22T13:00:36.055Z,62.77
2018-03-22T13:03:04.946Z,64.86
2018-03-22T13:05:33.466Z,61.91
2018-03-22T13:08:02.314Z,64.20
2018-03-22T13:10:30.849Z,60.63
2018-03-22T13:12:59.331Z,59.03
2018-03-22T13:15:27.954Z,59.97
2018-03-22T13:17:56.130Z,60.67
2018-03-22T13:20:24.392Z,60.91
2018-03-22T13:22:52.681Z,58.92
2018-03-22T13:25:21.265Z,59.37
2018-03-22T13:27:49.540Z,65.67
2018-03-22T13:30:18.231Z,60.53
2018-03-22T13:32:46.710Z,62.80
2018-03-22T13:35:14.987Z,60.03
2018-03-22T13:37:43.467Z,62.98
2018-03-22T13:40:11.987Z,65.57
2018-03-22T13:42:40.742Z,59.05
2018-03-22T13:45:09.633Z,65.31
2018-03-22T13:47:37.901Z,58.54
2018-03-22T13:50:05.861Z,62.82
2018-03-22T13:52:33.845Z,61.63
2018-03-22T13:55:01.836Z,63.10
2018-03-22T13:57:29.810Z,57.49
2018-03-22T13:59:57.849Z,58.58
2018-03-22T14:02:25.806Z,58.26
2018-03-22T14:04:54.085Z,58.45
2018-03-22T14:07:22.133Z,58.69
2018-03-22T14:09:50.114Z,58.10
2018-03-22T14:12:18.064Z,58.09
2018-03-22T14:14:46.062Z,58.82
2018-03-22T14:17:14.081Z,61.13
2018-03-22T14:19:41.996Z,60.01
2018-03-22T14:22:09.909Z,59.10
2018-03-22T14:24:38.285Z,62.80
2018-03-22T14:27:06.250Z,59.46
2018-03-22T14:29:34.700Z,59.08
2018-03-22T14:32:02.649Z,58.76
2018-03-22T14:34:30.576Z,68.87
2018-03-22T14:36:58.570Z,59.07
2018-03-22T14:39:26.530Z,58.47
2018-03-22T14:41:54.542Z,60.05
2018-03-22T14:44:22.589Z,60.41
2018-03-22T14:46:50.619Z,61.24
2018-03-22T14:49:18.589Z,61.18
2018-03-22T14:51:46.714Z,62.10
2018-03-22T14:54:14.618Z,62.36
2018-03-22T14:56:42.634Z,62.52
2018-03-22T14:59:10.638Z,62.21
2018-03-22T15:01:38.637Z,62.44
2018-03-22T15:04:06.573Z,61.37
2018-03-22T15:06:34.714Z,67.90
2018-03-22T15:09:02.689Z,65.48
2018-03-22T15:11:30.595Z,64.60
2018-03-22T15:13:58.590Z,60.14
2018-03-22T15:16:26.587Z,59.63
2018-03-22T15:18:54.538Z,58.48
2018-03-22T15:21:22.496Z,65.33
2018-03-22T15:23:50.450Z,66.52
2018-03-22T15:26:18.434Z,61.87
2018-03-22T15:28:46.458Z,59.17
2018-03-22T15:31:14.445Z,65.43
2018-03-22T15:33:42.425Z,60.57
2018-03-22T15:36:10.451Z,63.95
2018-03-22T15:38:38.397Z,68.21
2018-03-22T15:41:06.318Z,60.62
2018-03-22T15:43:34.322Z,66.57
2018-03-22T15:46:02.302Z,69.29
2018-03-22T15:48:30.299Z,61.66
2018-03-22T15:50:58.254Z,62.80
2018-03-22T15:53:26.306Z,64.08
2018-03-22T15:55:54.216Z,60.28
2018-03-22T15:58:22.192Z,64.90
2018-03-22T16:00:50.154Z,69.03
2018-03-22T16:03:17.950Z,64.76
2018-03-22T16:05:45.935Z,64.09
2018-03-22T16:08:14.242Z,65.13
2018-03-22T16:10:42.103Z,66.75
2018-03-22T16:13:10.066Z,63.84
2018-03-22T16:15:37.978Z,64.26
2018-03-22T16:18:05.960Z,62.31
2018-03-22T16:20:33.990Z,64.79
2018-03-22T16:23:02.038Z,69.27
2018-03-22T16:25:29.978Z,66.13
2018-03-22T16:27:57.922Z,68.82
2018-03-22T16:30:25.901Z,66.63
2018-03-22T16:32:53.985Z,63.38
2018-03-22T16:35:21.939Z,65.50
2018-03-22T16:37:49.969Z,70.60
2018-03-22T16:40:17.910Z,69.69
2018-03-22T16:42:45.890Z,64.98
2018-03-22T16:45:13.861Z,67.32
2018-03-22T16:47:41.877Z,66.16
2018-03-22T16:50:09.801Z,71.47
2018-03-22T16:52:37.775Z,65.47
2018-03-22T16:55:05.757Z,69.44
2018-03-22T16:57:33.747Z,64.54
2018-03-22T17:00:01.913Z,66.78
2018-03-22T17:02:30.036Z,65.50
2018-03-22T17:04:58.044Z,63.50
2018-03-22T17:07:25.986Z,66.90
2018-03-22T17:09:54.036Z,65.42
2018-03-22T17:12:22.026Z,64.59
2018-03-22T17:14:50.029Z,68.33
2018-03-22T17:17:17.981Z,70.55
2018-03-22T17:19:45.970Z,64.39
2018-03-22T17:22:14.011Z,66.90
2018-03-22T17:24:41.969Z,73.25
2018-03-22T17:27:09.913Z,66.45
2018-03-22T17:29:37.917Z,70.24
2018-03-22T17:32:05.917Z,66.66
2018-03-22T17:34:33.931Z,67.50
2018-03-22T17:37:01.925Z,64.79
2018-03-22T17:39:29.890Z,62.84
2018-03-22T17:41:57.846Z,65.48
2018-03-22T17:44:25.853Z,68.98
2018-03-22T17:46:53.818Z,61.80
2018-03-22T17:49:21.828Z,61.46
2018-03-22T17:51:49.833Z,62.72
2018-03-22T17:54:17.861Z,69.00
2018-03-22T17:56:45.818Z,63.44
2018-03-22T17:59:13.777Z,65.39
2018-03-22T18:01:41.738Z,65.08
2018-03-22T18:04:09.623Z,68.43
2018-03-22T18:06:37.589Z,72.42
2018-03-22T18:09:05.693Z,64.15
2018-03-22T18:11:34.006Z,66.07
2018-03-22T18:14:02.013Z,65.66
2018-03-22T18:16:30.018Z,66.78
2018-03-22T18:18:57.926Z,67.69
2018-03-22T18:21:25.863Z,65.61
2018-03-22T18:23:53.860Z,65.00
2018-03-22T18:26:21.882Z,64.21
2018-03-22T18:28:49.942Z,62.18
2018-03-22T18:31:17.930Z,62.21
2018-03-22T18:33:45.818Z,63.20
2018-03-22T18:36:13.796Z,64.83
2018-03-22T18:38:41.833Z,64.33
2018-03-22T18:41:09.819Z,64.75
2018-03-22T18:43:38.219Z,63.67
2018-03-22T18:46:06.326Z,65.66
2018-03-22T18:48:34.358Z,62.73
2018-03-22T18:51:02.317Z,62.30
2018-03-22T18:53:30.247Z,60.67
2018-03-22T18:55:58.183Z,61.88
2018-03-22T18:58:26.146Z,61.82
2018-03-22T19:00:53.936Z,62.44
2018-03-22T19:03:21.904Z,61.60
2018-03-22T19:05:49.886Z,64.36
2018-03-22T19:08:17.906Z,63.07
2018-03-22T19:10:45.842Z,64.80
2018-03-22T19:13:14.098Z,66.11
2018-03-22T19:15:42.083Z,66.45
2018-03-22T19:18:10.033Z,64.21
2018-03-22T19:20:37.986Z,64.84
2018-03-22T19:23:05.934Z,64.62
2018-03-22T19:25:33.942Z,63.61
2018-03-22T19:28:01.992Z,62.80
2018-03-22T19:30:29.942Z,63.51
2018-03-22T19:32:58.031Z,61.65
2018-03-22T19:35:26.045Z,62.05
2018-03-22T19:37:53.996Z,60.88
2018-03-22T19:40:21.908Z,60.90
2018-03-22T19:42:49.941Z,62.01
2018-03-22T19:45:17.838Z,61.70
2018-03-22T19:47:45.851Z,61.28
2018-03-22T19:50:13.839Z,61.22
2018-03-22T19:52:41.825Z,61.59
2018-03-22T19:55:09.800Z,61.91
2018-03-22T19:57:37.735Z,61.56
2018-03-22T20:00:05.763Z,61.49
2018-03-22T20:02:33.769Z,62.57
2018-03-22T20:05:01.722Z,62.01
2018-03-22T20:07:29.707Z,60.43
2018-03-22T20:09:57.778Z,60.23
2018-03-22T20:12:25.870Z,61.27
2018-03-22T20:14:54.195Z,61.40
2018-03-22T20:17:22.180Z,62.73
2018-03-22T20:19:50.168Z,64.83
2018-03-22T20:22:18.141Z,63.50
2018-03-22T20:24:46.122Z,64.40
2018-03-22T20:27:14.144Z,63.55
2018-03-22T20:29:42.025Z,63.48
2018-03-22T20:32:10.038Z,62.41
2018-03-22T20:34:38.025Z,61.60
2018-03-22T20:37:05.970Z,62.84
2018-03-22T20:39:34.041Z,61.60
2018-03-22T20:42:02.005Z,61.40
2018-03-22T20:44:29.941Z,63.80
2018-03-22T20:46:57.840Z,65.78
2018-03-22T20:49:25.804Z,66.85
2018-03-22T20:51:53.756Z,64.63
2018-03-22T20:54:21.781Z,66.84
2018-03-22T20:56:49.769Z,66.24
2018-03-22T20:59:17.730Z,72.27
2018-03-22T21:01:45.646Z,62.76
2018-03-22T21:04:13.609Z,64.84
2018-03-22T21:06:41.590Z,65.51
2018-03-22T21:09:09.565Z,62.08
2018-03-22T21:11:37.473Z,63.33
2018-03-22T21:14:05.431Z,63.88
2018-03-22T21:16:33.605Z,62.90
2018-03-22T21:19:01.523Z,61.49
2018-03-22T21:21:29.502Z,61.82
2018-03-22T21:23:57.510Z,60.09
2018-03-22T21:26:25.441Z,61.17
2018-03-22T21:28:53.389Z,60.44
2018-03-22T21:31:21.372Z,61.30
2018-03-22T21:33:49.352Z,62.54
2018-03-22T21:36:17.402Z,62.51
2018-03-22T21:38:45.407Z,63.54
2018-03-22T21:41:13.392Z,61.59
2018-03-22T21:46:47.310Z,62.01
2018-03-22T21:49:15.281Z,62.46
2018-03-22T21:51:49.014Z,63.29
2018-03-22T21:54:17.007Z,66.22
2018-03-22T21:56:44.929Z,67.26
2018-03-22T21:59:12.917Z,65.65
2018-03-22T22:01:40.865Z,65.47
2018-03-22T22:04:08.805Z,62.79
2018-03-22T22:06:36.785Z,63.08
2018-03-22T22:09:04.867Z,61.37
2018-03-22T22:11:32.817Z,63.72
2018-03-22T22:14:00.704Z,61.31
2018-03-22T22:16:28.661Z,63.14
2018-03-22T22:18:57.027Z,61.64
2018-03-22T22:21:24.915Z,60.31
2018-03-22T22:23:53.628Z,60.80
2018-03-22T22:26:21.547Z,60.42
2018-03-22T22:28:49.513Z,60.99
2018-03-22T22:31:17.465Z,60.68
2018-03-22T22:33:45.474Z,64.26
2018-03-22T22:36:13.470Z,64.83
2018-03-22T22:38:41.444Z,63.55
2018-03-22T22:41:09.407Z,63.61
2018-03-22T22:43:37.367Z,66.72
2018-03-22T22:46:05.342Z,66.55
2018-03-22T22:48:33.319Z,66.31
2018-03-22T22:51:01.322Z,64.65
2018-03-22T22:53:29.270Z,64.71
2018-03-22T22:55:57.199Z,64.38
2018-03-22T22:58:25.182Z,66.38
2018-03-22T23:00:53.202Z,64.86
2018-03-22T23:03:21.230Z,63.95
2018-03-22T23:05:49.163Z,61.70
2018-03-22T23:08:17.145Z,64.34
2018-03-22T23:10:45.080Z,67.31
2018-03-22T23:13:13.073Z,65.58
2018-03-22T23:15:40.945Z,65.33
2018-03-22T23:18:08.885Z,65.41
2018-03-22T23:20:37.356Z,64.18
2018-03-22T23:23:05.381Z,63.79
2018-03-22T23:25:33.330Z,63.51
2018-03-22T23:28:01.260Z,65.31
2018-03-22T23:30:29.229Z,73.04
2018-03-22T23:32:57.266Z,64.63
2018-03-22T23:35:25.231Z,65.56
2018-03-22T23:37:53.198Z,66.67
2018-03-22T23:40:21.205Z,72.05
2018-03-22T23:42:49.201Z,67.45
2018-03-22T23:45:17.120Z,67.19
2018-03-22T23:47:45.038Z,67.03
2018-03-22T23:50:12.974Z,66.13
2018-03-22T23:52:40.917Z,68.22
2018-03-22T23:55:08.888Z,67.69
2018-03-22T23:57:36.854Z,68.95
